Nearby METAR Reports

 

KBAX - Bad Axe, Michigan, USA
Distance from station: ESE 22mi, 35km
Updated: Thu, 20-Jan-2022 12:35pm EST
Overcast
Overcast
 Wind from N
Wind: N 14 mph , 22 km/h, Gust: 21 mph , 33 km/h
Temperature: 16°F , -9°C
Wind Chill: 2°F , -17°C
Dew Point: 7°F , -14°C
Humidity: 67%
Barometer: 30.48 inHg , 1032.2 hPa
Clouds: Overcast
Visibility: 10 miles , 16 km
Cloud details: Partly cloudy 2700 ft
Overcast 4800 ft
2022/01/20 17:35 KBAX 201735Z AUTO 35012G18KT 10SM SCT027 OVC048 M09/M14 A3048 RMK AO2 T10911145
KFNT - Flint, Michigan, USA
Distance from station: SSW 68mi, 109km
Updated: Thu, 20-Jan-2022 11:53am EST
Light snow, Overcast
Light snow, Overcast
 Wind from NW
Wind: NW 9 mph , 15 km/h
Temperature: 18°F , -8°C
Wind Chill: 7°F , -14°C
Dew Point: 7°F , -14°C
Humidity: 62%
Barometer: 30.49 inHg , 1032.5 hPa
Summary: Light Snow
Clouds: Overcast
Visibility: 6 miles , 10 km
Cloud details: Overcast 3700 ft
2022/01/20 16:53 KFNT 201653Z 31008KT 6SM -SN OVC037 M08/M14 A3049 RMK AO2 SNB18 SLP339 P0000 T10781139
KMBS - Saginaw, Michigan, USA
Distance from station: SW 44mi, 70km
Updated: Thu, 20-Jan-2022 11:53am EST
Light snow, Overcast
Light snow, Overcast
 Wind from NNW
Wind: NNW 7 mph , 11 km/h
Temperature: 18°F , -8°C
Wind Chill: 9°F , -13°C
Dew Point: 9°F , -13°C
Humidity: 68%
Barometer: 30.51 inHg , 1033.2 hPa
Summary: Light Snow
Clouds: Overcast
Visibility: 5 miles , 8 km
Cloud details: Overcast 4100 ft
2022/01/20 16:53 KMBS 201653Z 33006KT 5SM -SN OVC041 M08/M13 A3051 RMK AO2 SNB14 SLP344 P0000 T10781128
 
KDTW - Detroit/Wayne, Michigan, USA
Distance from station: SSE 117mi, 188km
Updated: Thu, 20-Jan-2022 12:18pm EST
Overcast
Overcast
 Wind from NNW
Wind: NNW 6 mph , 9 km/h
Temperature: 19°F , -7°C
Wind Chill: 11°F , -12°C
Dew Point: 7°F , -14°C
Humidity: 58%
Barometer: 30.48 inHg , 1032.2 hPa
Clouds: Overcast
Visibility: 9 miles , 14 km
Cloud details: Overcast 3500 ft
2022/01/20 17:18 KDTW 201718Z 34005KT 9SM OVC035 M07/M14 A3048 RMK AO2 SNE18 P0000 T10721144
KP58 - Port Hope, Michigan, USA
Distance from station: ENE 30mi, 48km
Updated: Thu, 20-Jan-2022 11:55am EST

 Wind from NNW
Wind: NNW 14 mph , 22 km/h, Gust: 26 mph , 43 km/h
Temperature: 16°F , -9°C
Wind Chill: 2°F , -17°C
Dew Point: 7°F , -14°C
Humidity: 67%
Barometer: 30.48 inHg , 1032.2 hPa
2022/01/20 16:55 KP58 201655Z AUTO 33012G23KT M09/M14 A3048 RMK AO1 SLP340 T10891144
KCFS - Caro/Tuscola, Michigan, USA
Distance from station: S 31mi, 50km
Updated: Thu, 20-Jan-2022 12:35pm EST
Overcast
Overcast
 Wind from NNW
Wind: NNW 8 mph , 13 km/h
Temperature: 18°F , -8°C
Wind Chill: 8°F , -13°C
Dew Point: 7°F , -14°C
Humidity: 62%
Barometer: 30.48 inHg , 1032.2 hPa
Clouds: Overcast
Visibility: 10 miles , 16 km
Cloud details: Partly cloudy 2700 ft
Overcast 4400 ft
2022/01/20 17:35 KCFS 201735Z AUTO 34007KT 10SM SCT027 OVC044 M08/M14 A3048 RMK AO2 T10831144
 
KPHN - Port Huron, Michigan, USA
Distance from station: SSE 81mi, 131km
Updated: Thu, 20-Jan-2022 12:35pm EST
Overcast
Overcast
 Wind from NW
Wind: NW 10 mph , 17 km/h, Gust: 16 mph , 26 km/h
Temperature: 19°F , -7°C
Wind Chill: 8°F , -13°C
Dew Point: 3°F , -16°C
Humidity: 49%
Barometer: 30.46 inHg , 1031.5 hPa
Clouds: Overcast
Visibility: 10 miles , 16 km
Cloud details: Overcast 4400 ft
2022/01/20 17:35 KPHN 201735Z AUTO 32009G14KT 10SM OVC044 M07/M16 A3046 RMK AO2
KPTK - Pontiac, Michigan, USA
Distance from station: S 86mi, 138km
Updated: Thu, 20-Jan-2022 12:00pm EST
Light snow, Overcast
Light snow, Overcast
 Wind from N
Wind: N 7 mph , 11 km/h
Temperature: 18°F , -8°C
Wind Chill: 9°F , -13°C
Dew Point: 3°F , -16°C
Humidity: 53%
Barometer: 30.44 inHg , 1030.8 hPa
Summary: Light Snow
Clouds: Overcast
Visibility: 9 miles , 14 km
Cloud details: Overcast 3400 ft
2022/01/20 17:00 KPTK 201700Z 35006KT 9SM -SN OVC034 M08/M16 A3044 RMK AO2 SNB1659 P0000 T10831156 $
KMTC - Selfridge Angb, Michigan, USA
Distance from station: SSE 94mi, 151km
Updated: Thu, 20-Jan-2022 11:56am EST
Mostly cloudy
Mostly cloudy
 Wind from NW
Wind: NW 13 mph , 20 km/h
Temperature: 19°F , -7°C
Wind Chill: 6°F , -14°C
Dew Point: 3°F , -16°C
Humidity: 49%
Barometer: 30.46 inHg , 1031.5 hPa
Clouds: Mostly cloudy
Visibility: 10 miles , 16 km
Cloud details: Mostly cloudy 4200 ft
2022/01/20 16:56 KMTC 201656Z 32011KT 10SM BKN042 M07/M16 A3046 RMK AO2A SLP334 T10691156 $